sensor_id;sensor_type;location;lat;lon;timestamp;P1;durP1;ratioP1;P2;durP2;ratioP2
54332;SDS011;40230;41.860;21.940;2022-09-30T00:01:45;8.23;;;5.32;;
54332;SDS011;40230;41.860;21.940;2022-09-30T00:04:15;8.25;;;5.20;;
54332;SDS011;40230;41.860;21.940;2022-09-30T00:06:41;7.15;;;5.85;;
54332;SDS011;40230;41.860;21.940;2022-09-30T00:09:08;8.40;;;6.38;;
54332;SDS011;40230;41.860;21.940;2022-09-30T00:11:35;6.38;;;5.78;;
54332;SDS011;40230;41.860;21.940;2022-09-30T00:14:03;8.45;;;6.60;;
54332;SDS011;40230;41.860;21.940;2022-09-30T00:16:31;6.25;;;5.45;;
54332;SDS011;40230;41.860;21.940;2022-09-30T00:18:58;5.80;;;5.20;;
54332;SDS011;40230;41.860;21.940;2022-09-30T00:21:25;7.10;;;6.03;;
54332;SDS011;40230;41.860;21.940;2022-09-30T00:23:52;7.18;;;5.53;;
54332;SDS011;40230;41.860;21.940;2022-09-30T00:26:19;6.20;;;5.60;;
54332;SDS011;40230;41.860;21.940;2022-09-30T00:28:49;8.15;;;5.72;;
54332;SDS011;40230;41.860;21.940;2022-09-30T00:31:16;6.80;;;6.00;;
54332;SDS011;40230;41.860;21.940;2022-09-30T00:33:43;5.95;;;5.35;;
54332;SDS011;40230;41.860;21.940;2022-09-30T00:36:29;7.28;;;5.78;;
54332;SDS011;40230;41.860;21.940;2022-09-30T00:38:55;10.20;;;5.93;;
54332;SDS011;40230;41.860;21.940;2022-09-30T00:41:21;6.68;;;5.95;;
54332;SDS011;40230;41.860;21.940;2022-09-30T00:43:49;6.95;;;5.85;;
54332;SDS011;40230;41.860;21.940;2022-09-30T00:51:49;6.25;;;5.65;;
54332;SDS011;40230;41.860;21.940;2022-09-30T00:54:21;7.05;;;5.28;;
54332;SDS011;40230;41.860;21.940;2022-09-30T00:56:49;6.70;;;5.63;;
54332;SDS011;40230;41.860;21.940;2022-09-30T00:59:21;6.32;;;5.68;;
54332;SDS011;40230;41.860;21.940;2022-09-30T01:01:49;10.70;;;6.68;;
54332;SDS011;40230;41.860;21.940;2022-09-30T01:04:22;7.57;;;5.43;;
54332;SDS011;40230;41.860;21.940;2022-09-30T01:06:49;6.30;;;5.53;;
54332;SDS011;40230;41.860;21.940;2022-09-30T01:09:15;7.47;;;6.18;;
54332;SDS011;40230;41.860;21.940;2022-09-30T01:11:42;8.45;;;6.70;;
54332;SDS011;40230;41.860;21.940;2022-09-30T01:16:55;7.90;;;5.90;;
54332;SDS011;40230;41.860;21.940;2022-09-30T01:40:10;6.40;;;5.78;;
54332;SDS011;40230;41.860;21.940;2022-09-30T01:48:29;8.35;;;6.28;;
54332;SDS011;40230;41.860;21.940;2022-09-30T01:50:57;8.13;;;6.47;;
54332;SDS011;40230;41.860;21.940;2022-09-30T02:01:05;7.20;;;6.50;;
54332;SDS011;40230;41.860;21.940;2022-09-30T02:03:34;7.95;;;6.47;;
54332;SDS011;40230;41.860;21.940;2022-09-30T02:06:06;7.50;;;6.00;;
54332;SDS011;40230;41.860;21.940;2022-09-30T02:11:20;7.68;;;6.60;;
54332;SDS011;40230;41.860;21.940;2022-09-30T02:13:52;12.10;;;5.97;;
54332;SDS011;40230;41.860;21.940;2022-09-30T02:16:25;6.00;;;4.78;;
54332;SDS011;40230;41.860;21.940;2022-09-30T02:18:54;6.57;;;4.95;;
54332;SDS011;40230;41.860;21.940;2022-09-30T02:21:23;7.28;;;5.63;;
54332;SDS011;40230;41.860;21.940;2022-09-30T02:23:52;9.40;;;5.80;;
54332;SDS011;40230;41.860;21.940;2022-09-30T02:26:21;6.78;;;5.55;;
54332;SDS011;40230;41.860;21.940;2022-09-30T02:29:00;6.45;;;5.65;;
54332;SDS011;40230;41.860;21.940;2022-09-30T02:31:27;6.90;;;5.78;;
54332;SDS011;40230;41.860;21.940;2022-09-30T02:33:59;10.25;;;6.35;;
54332;SDS011;40230;41.860;21.940;2022-09-30T02:36:33;7.30;;;5.53;;
54332;SDS011;40230;41.860;21.940;2022-09-30T02:41:27;6.30;;;5.70;;
54332;SDS011;40230;41.860;21.940;2022-09-30T02:43:54;7.22;;;5.60;;
54332;SDS011;40230;41.860;21.940;2022-09-30T02:53:42;10.23;;;7.90;;
54332;SDS011;40230;41.860;21.940;2022-09-30T02:56:29;30.00;;;25.70;;
54332;SDS011;40230;41.860;21.940;2022-09-30T02:59:02;20.23;;;16.83;;
54332;SDS011;40230;41.860;21.940;2022-09-30T03:01:29;11.57;;;7.53;;
54332;SDS011;40230;41.860;21.940;2022-09-30T03:03:56;8.68;;;6.00;;
54332;SDS011;40230;41.860;21.940;2022-09-30T03:06:23;9.45;;;6.60;;
54332;SDS011;40230;41.860;21.940;2022-09-30T03:08:53;7.70;;;6.15;;
54332;SDS011;40230;41.860;21.940;2022-09-30T03:11:23;8.48;;;6.40;;
54332;SDS011;40230;41.860;21.940;2022-09-30T03:21:48;10.68;;;7.20;;
54332;SDS011;40230;41.860;21.940;2022-09-30T03:29:50;8.20;;;7.10;;
54332;SDS011;40230;41.860;21.940;2022-09-30T03:32:23;9.90;;;6.45;;
54332;SDS011;40230;41.860;21.940;2022-09-30T03:37:33;11.43;;;6.93;;
54332;SDS011;40230;41.860;21.940;2022-09-30T03:42:40;11.10;;;7.85;;
54332;SDS011;40230;41.860;21.940;2022-09-30T03:45:10;7.72;;;5.95;;
54332;SDS011;40230;41.860;21.940;2022-09-30T03:47:39;7.30;;;6.25;;
54332;SDS011;40230;41.860;21.940;2022-09-30T03:50:08;8.30;;;6.30;;
54332;SDS011;40230;41.860;21.940;2022-09-30T03:52:35;8.45;;;6.18;;
54332;SDS011;40230;41.860;21.940;2022-09-30T03:55:03;10.10;;;8.65;;
54332;SDS011;40230;41.860;21.940;2022-09-30T03:57:30;21.02;;;15.48;;
54332;SDS011;40230;41.860;21.940;2022-09-30T03:59:56;67.85;;;50.78;;
54332;SDS011;40230;41.860;21.940;2022-09-30T04:02:23;16.65;;;13.65;;
54332;SDS011;40230;41.860;21.940;2022-09-30T04:04:49;11.48;;;7.03;;
54332;SDS011;40230;41.860;21.940;2022-09-30T04:07:15;7.85;;;6.40;;
54332;SDS011;40230;41.860;21.940;2022-09-30T04:09:41;9.63;;;6.47;;
54332;SDS011;40230;41.860;21.940;2022-09-30T04:12:07;9.80;;;6.50;;
54332;SDS011;40230;41.860;21.940;2022-09-30T04:14:34;11.43;;;8.27;;
54332;SDS011;40230;41.860;21.940;2022-09-30T04:17:00;8.40;;;7.07;;
54332;SDS011;40230;41.860;21.940;2022-09-30T04:19:26;9.77;;;7.07;;
54332;SDS011;40230;41.860;21.940;2022-09-30T04:21:53;10.48;;;7.35;;
54332;SDS011;40230;41.860;21.940;2022-09-30T04:24:19;21.35;;;9.10;;
54332;SDS011;40230;41.860;21.940;2022-09-30T04:26:45;13.73;;;7.97;;
54332;SDS011;40230;41.860;21.940;2022-09-30T04:29:11;22.08;;;16.40;;
54332;SDS011;40230;41.860;21.940;2022-09-30T04:31:37;9.32;;;7.30;;
54332;SDS011;40230;41.860;21.940;2022-09-30T04:34:03;8.68;;;6.40;;
54332;SDS011;40230;41.860;21.940;2022-09-30T04:36:30;12.52;;;7.38;;
54332;SDS011;40230;41.860;21.940;2022-09-30T04:38:56;21.70;;;17.27;;
54332;SDS011;40230;41.860;21.940;2022-09-30T04:41:22;12.15;;;7.18;;
54332;SDS011;40230;41.860;21.940;2022-09-30T04:43:49;11.68;;;7.63;;
54332;SDS011;40230;41.860;21.940;2022-09-30T04:46:16;7.70;;;6.50;;
54332;SDS011;40230;41.860;21.940;2022-09-30T04:48:43;8.32;;;6.22;;
54332;SDS011;40230;41.860;21.940;2022-09-30T04:51:12;11.30;;;6.93;;
54332;SDS011;40230;41.860;21.940;2022-09-30T04:53:39;30.55;;;22.90;;
54332;SDS011;40230;41.860;21.940;2022-09-30T04:56:05;22.45;;;13.93;;
54332;SDS011;40230;41.860;21.940;2022-09-30T04:58:32;11.13;;;7.80;;
54332;SDS011;40230;41.860;21.940;2022-09-30T05:01:08;9.93;;;7.05;;
54332;SDS011;40230;41.860;21.940;2022-09-30T05:03:34;187.32;;;145.52;;
54332;SDS011;40230;41.860;21.940;2022-09-30T05:06:01;23.38;;;17.83;;
54332;SDS011;40230;41.860;21.940;2022-09-30T05:08:27;9.57;;;8.43;;
54332;SDS011;40230;41.860;21.940;2022-09-30T05:10:54;10.70;;;8.38;;
54332;SDS011;40230;41.860;21.940;2022-09-30T05:13:22;9.85;;;8.18;;
54332;SDS011;40230;41.860;21.940;2022-09-30T05:15:48;10.23;;;8.45;;
54332;SDS011;40230;41.860;21.940;2022-09-30T05:18:14;12.55;;;8.48;;
54332;SDS011;40230;41.860;21.940;2022-09-30T05:20:40;13.73;;;10.05;;
54332;SDS011;40230;41.860;21.940;2022-09-30T05:23:07;15.90;;;11.40;;
54332;SDS011;40230;41.860;21.940;2022-09-30T05:25:33;15.90;;;10.75;;
54332;SDS011;40230;41.860;21.940;2022-09-30T05:27:59;23.83;;;15.20;;
54332;SDS011;40230;41.860;21.940;2022-09-30T05:30:26;21.45;;;16.08;;
54332;SDS011;40230;41.860;21.940;2022-09-30T05:32:52;18.52;;;16.55;;
54332;SDS011;40230;41.860;21.940;2022-09-30T05:35:18;22.35;;;16.50;;
54332;SDS011;40230;41.860;21.940;2022-09-30T05:37:44;16.42;;;14.00;;
54332;SDS011;40230;41.860;21.940;2022-09-30T05:40:10;28.13;;;21.98;;
54332;SDS011;40230;41.860;21.940;2022-09-30T05:42:36;23.73;;;20.45;;
54332;SDS011;40230;41.860;21.940;2022-09-30T05:45:04;19.15;;;16.02;;
54332;SDS011;40230;41.860;21.940;2022-09-30T05:47:31;14.40;;;10.00;;
54332;SDS011;40230;41.860;21.940;2022-09-30T05:49:57;15.13;;;12.23;;
54332;SDS011;40230;41.860;21.940;2022-09-30T05:52:23;14.82;;;11.25;;
54332;SDS011;40230;41.860;21.940;2022-09-30T05:54:50;11.32;;;8.20;;
54332;SDS011;40230;41.860;21.940;2022-09-30T05:57:16;26.67;;;20.05;;
54332;SDS011;40230;41.860;21.940;2022-09-30T05:59:42;83.10;;;71.93;;
54332;SDS011;40230;41.860;21.940;2022-09-30T06:02:09;37.08;;;26.63;;
54332;SDS011;40230;41.860;21.940;2022-09-30T06:04:35;22.48;;;18.90;;
54332;SDS011;40230;41.860;21.940;2022-09-30T06:07:01;21.40;;;13.30;;
54332;SDS011;40230;41.860;21.940;2022-09-30T06:09:27;20.80;;;16.30;;
54332;SDS011;40230;41.860;21.940;2022-09-30T06:11:53;15.25;;;10.68;;
54332;SDS011;40230;41.860;21.940;2022-09-30T06:14:22;15.48;;;10.82;;
54332;SDS011;40230;41.860;21.940;2022-09-30T06:16:48;11.73;;;9.50;;
54332;SDS011;40230;41.860;21.940;2022-09-30T06:19:15;11.60;;;8.38;;
54332;SDS011;40230;41.860;21.940;2022-09-30T06:21:41;13.85;;;9.50;;
54332;SDS011;40230;41.860;21.940;2022-09-30T06:24:08;195.75;;;57.53;;
54332;SDS011;40230;41.860;21.940;2022-09-30T06:26:37;290.08;;;84.60;;
54332;SDS011;40230;41.860;21.940;2022-09-30T06:29:03;378.77;;;109.70;;
54332;SDS011;40230;41.860;21.940;2022-09-30T06:31:30;229.43;;;67.75;;
54332;SDS011;40230;41.860;21.940;2022-09-30T06:33:56;67.22;;;25.85;;
54332;SDS011;40230;41.860;21.940;2022-09-30T06:36:22;18.65;;;11.50;;
54332;SDS011;40230;41.860;21.940;2022-09-30T06:38:48;15.45;;;11.43;;
54332;SDS011;40230;41.860;21.940;2022-09-30T06:41:18;26.52;;;13.85;;
54332;SDS011;40230;41.860;21.940;2022-09-30T06:43:44;15.27;;;11.20;;
54332;SDS011;40230;41.860;21.940;2022-09-30T06:46:11;17.13;;;12.77;;
54332;SDS011;40230;41.860;21.940;2022-09-30T06:48:37;15.20;;;10.48;;
54332;SDS011;40230;41.860;21.940;2022-09-30T06:51:06;13.98;;;11.23;;
54332;SDS011;40230;41.860;21.940;2022-09-30T06:53:35;12.50;;;9.90;;
54332;SDS011;40230;41.860;21.940;2022-09-30T06:56:07;11.52;;;7.95;;
54332;SDS011;40230;41.860;21.940;2022-09-30T06:58:34;30.63;;;14.18;;
54332;SDS011;40230;41.860;21.940;2022-09-30T07:01:01;16.38;;;10.77;;
54332;SDS011;40230;41.860;21.940;2022-09-30T07:03:28;17.75;;;12.93;;
54332;SDS011;40230;41.860;21.940;2022-09-30T07:05:56;21.70;;;15.27;;
54332;SDS011;40230;41.860;21.940;2022-09-30T07:08:22;25.23;;;14.68;;
54332;SDS011;40230;41.860;21.940;2022-09-30T07:10:50;15.73;;;11.45;;
54332;SDS011;40230;41.860;21.940;2022-09-30T07:13:17;29.88;;;14.25;;
54332;SDS011;40230;41.860;21.940;2022-09-30T07:15:43;22.45;;;12.38;;
54332;SDS011;40230;41.860;21.940;2022-09-30T07:18:09;15.98;;;11.30;;
54332;SDS011;40230;41.860;21.940;2022-09-30T07:20:35;16.33;;;11.10;;
54332;SDS011;40230;41.860;21.940;2022-09-30T07:23:01;17.20;;;11.93;;
54332;SDS011;40230;41.860;21.940;2022-09-30T07:25:27;16.75;;;11.65;;
54332;SDS011;40230;41.860;21.940;2022-09-30T07:27:53;17.77;;;12.48;;
54332;SDS011;40230;41.860;21.940;2022-09-30T07:30:20;12.85;;;11.52;;
54332;SDS011;40230;41.860;21.940;2022-09-30T07:32:46;17.02;;;12.43;;
54332;SDS011;40230;41.860;21.940;2022-09-30T07:35:12;13.23;;;10.20;;
54332;SDS011;40230;41.860;21.940;2022-09-30T07:37:39;18.17;;;11.35;;
54332;SDS011;40230;41.860;21.940;2022-09-30T07:40:05;20.80;;;11.25;;
54332;SDS011;40230;41.860;21.940;2022-09-30T07:42:35;20.20;;;11.85;;
54332;SDS011;40230;41.860;21.940;2022-09-30T07:45:16;34.17;;;15.93;;
54332;SDS011;40230;41.860;21.940;2022-09-30T07:47:49;26.37;;;12.57;;
54332;SDS011;40230;41.860;21.940;2022-09-30T07:50:18;18.88;;;10.85;;
54332;SDS011;40230;41.860;21.940;2022-09-30T07:52:44;21.25;;;12.32;;
54332;SDS011;40230;41.860;21.940;2022-09-30T07:55:10;14.30;;;10.60;;
54332;SDS011;40230;41.860;21.940;2022-09-30T07:57:36;19.27;;;12.10;;
54332;SDS011;40230;41.860;21.940;2022-09-30T08:00:02;16.70;;;11.15;;
54332;SDS011;40230;41.860;21.940;2022-09-30T08:02:29;13.00;;;9.35;;
54332;SDS011;40230;41.860;21.940;2022-09-30T08:04:55;7.40;;;6.60;;
54332;SDS011;40230;41.860;21.940;2022-09-30T08:07:21;8.40;;;7.47;;
54332;SDS011;40230;41.860;21.940;2022-09-30T08:09:47;9.48;;;8.27;;
54332;SDS011;40230;41.860;21.940;2022-09-30T08:12:13;8.75;;;7.88;;
54332;SDS011;40230;41.860;21.940;2022-09-30T08:14:39;15.52;;;8.63;;
54332;SDS011;40230;41.860;21.940;2022-09-30T08:17:12;12.55;;;8.50;;
54332;SDS011;40230;41.860;21.940;2022-09-30T08:19:38;31.35;;;13.50;;
54332;SDS011;40230;41.860;21.940;2022-09-30T08:22:08;16.67;;;9.57;;
54332;SDS011;40230;41.860;21.940;2022-09-30T08:24:34;13.65;;;9.20;;
54332;SDS011;40230;41.860;21.940;2022-09-30T08:27:00;17.98;;;9.05;;
54332;SDS011;40230;41.860;21.940;2022-09-30T08:29:26;11.10;;;7.60;;
54332;SDS011;40230;41.860;21.940;2022-09-30T08:31:53;7.82;;;6.43;;
54332;SDS011;40230;41.860;21.940;2022-09-30T08:34:19;9.60;;;6.80;;
54332;SDS011;40230;41.860;21.940;2022-09-30T08:36:45;27.98;;;13.75;;
54332;SDS011;40230;41.860;21.940;2022-09-30T08:39:11;31.98;;;15.35;;
54332;SDS011;40230;41.860;21.940;2022-09-30T08:54:29;26.83;;;13.95;;
54332;SDS011;40230;41.860;21.940;2022-09-30T08:57:00;20.88;;;11.43;;
54332;SDS011;40230;41.860;21.940;2022-09-30T09:04:40;9.30;;;7.35;;
54332;SDS011;40230;41.860;21.940;2022-09-30T09:07:16;11.85;;;8.68;;
54332;SDS011;40230;41.860;21.940;2022-09-30T09:12:38;8.32;;;6.85;;
54332;SDS011;40230;41.860;21.940;2022-09-30T09:20:37;13.95;;;6.47;;
54332;SDS011;40230;41.860;21.940;2022-09-30T09:23:09;9.13;;;6.20;;
54332;SDS011;40230;41.860;21.940;2022-09-30T09:25:36;7.40;;;6.63;;
54332;SDS011;40230;41.860;21.940;2022-09-30T09:28:05;8.77;;;6.57;;
54332;SDS011;40230;41.860;21.940;2022-09-30T09:30:35;7.00;;;6.28;;
54332;SDS011;40230;41.860;21.940;2022-09-30T09:38:23;8.95;;;5.78;;
54332;SDS011;40230;41.860;21.940;2022-09-30T09:40:57;10.00;;;6.00;;
54332;SDS011;40230;41.860;21.940;2022-09-30T09:43:27;7.80;;;5.65;;
54332;SDS011;40230;41.860;21.940;2022-09-30T09:46:10;7.20;;;5.80;;
54332;SDS011;40230;41.860;21.940;2022-09-30T09:48:37;7.03;;;5.40;;
54332;SDS011;40230;41.860;21.940;2022-09-30T09:51:25;5.07;;;4.30;;
54332;SDS011;40230;41.860;21.940;2022-09-30T09:53:50;5.95;;;4.88;;
54332;SDS011;40230;41.860;21.940;2022-09-30T09:56:21;5.18;;;4.18;;
54332;SDS011;40230;41.860;21.940;2022-09-30T09:59:04;4.35;;;3.67;;
54332;SDS011;40230;41.860;21.940;2022-09-30T10:01:31;4.30;;;3.10;;
54332;SDS011;40230;41.860;21.940;2022-09-30T10:04:07;5.88;;;3.15;;
54332;SDS011;40230;41.860;21.940;2022-09-30T10:06:41;6.40;;;4.03;;
54332;SDS011;40230;41.860;21.940;2022-09-30T10:09:08;3.63;;;2.77;;
54332;SDS011;40230;41.860;21.940;2022-09-30T10:11:46;3.53;;;2.80;;
54332;SDS011;40230;41.860;21.940;2022-09-30T10:14:15;5.47;;;3.17;;
54332;SDS011;40230;41.860;21.940;2022-09-30T10:16:43;4.97;;;2.90;;
54332;SDS011;40230;41.860;21.940;2022-09-30T10:19:22;3.38;;;2.30;;
54332;SDS011;40230;41.860;21.940;2022-09-30T10:21:50;4.38;;;3.08;;
54332;SDS011;40230;41.860;21.940;2022-09-30T10:24:25;4.30;;;2.85;;
54332;SDS011;40230;41.860;21.940;2022-09-30T10:26:52;4.53;;;2.97;;
54332;SDS011;40230;41.860;21.940;2022-09-30T10:29:29;3.22;;;2.83;;
54332;SDS011;40230;41.860;21.940;2022-09-30T10:31:59;4.15;;;2.92;;
54332;SDS011;40230;41.860;21.940;2022-09-30T10:34:27;13.60;;;12.15;;
54332;SDS011;40230;41.860;21.940;2022-09-30T10:36:54;9.30;;;8.30;;
54332;SDS011;40230;41.860;21.940;2022-09-30T10:39:25;5.22;;;3.03;;
54332;SDS011;40230;41.860;21.940;2022-09-30T10:42:02;6.28;;;3.00;;
54332;SDS011;40230;41.860;21.940;2022-09-30T10:44:32;4.35;;;2.40;;
54332;SDS011;40230;41.860;21.940;2022-09-30T10:47:01;5.55;;;3.05;;
54332;SDS011;40230;41.860;21.940;2022-09-30T10:52:21;3.95;;;2.33;;
54332;SDS011;40230;41.860;21.940;2022-09-30T10:54:57;3.67;;;1.83;;
54332;SDS011;40230;41.860;21.940;2022-09-30T10:57:24;4.50;;;2.35;;
54332;SDS011;40230;41.860;21.940;2022-09-30T10:59:52;5.45;;;2.17;;
54332;SDS011;40230;41.860;21.940;2022-09-30T11:02:29;3.67;;;1.90;;
54332;SDS011;40230;41.860;21.940;2022-09-30T11:05:10;12.82;;;6.50;;
54332;SDS011;40230;41.860;21.940;2022-09-30T11:07:52;77.03;;;26.15;;
54332;SDS011;40230;41.860;21.940;2022-09-30T11:12:47;26.15;;;11.02;;
54332;SDS011;40230;41.860;21.940;2022-09-30T11:15:20;12.50;;;6.10;;
54332;SDS011;40230;41.860;21.940;2022-09-30T11:17:49;16.90;;;7.75;;
54332;SDS011;40230;41.860;21.940;2022-09-30T11:20:19;7.00;;;3.30;;
54332;SDS011;40230;41.860;21.940;2022-09-30T11:25:16;9.15;;;6.32;;
54332;SDS011;40230;41.860;21.940;2022-09-30T11:32:53;32.58;;;15.30;;
54332;SDS011;40230;41.860;21.940;2022-09-30T11:40:37;35.95;;;15.35;;
54332;SDS011;40230;41.860;21.940;2022-09-30T11:54:27;7.05;;;3.63;;
54332;SDS011;40230;41.860;21.940;2022-09-30T11:59:02;4.68;;;3.50;;
54332;SDS011;40230;41.860;21.940;2022-09-30T12:01:31;6.00;;;2.80;;
54332;SDS011;40230;41.860;21.940;2022-09-30T12:06:49;3.97;;;2.00;;
54332;SDS011;40230;41.860;21.940;2022-09-30T12:09:19;5.68;;;3.00;;
54332;SDS011;40230;41.860;21.940;2022-09-30T12:11:49;4.68;;;2.17;;
54332;SDS011;40230;41.860;21.940;2022-09-30T12:14:18;9.40;;;3.78;;
54332;SDS011;40230;41.860;21.940;2022-09-30T12:16:45;4.93;;;2.58;;
54332;SDS011;40230;41.860;21.940;2022-09-30T12:19:14;2.78;;;1.77;;
54332;SDS011;40230;41.860;21.940;2022-09-30T12:21:52;3.58;;;2.35;;
54332;SDS011;40230;41.860;21.940;2022-09-30T12:26:47;38.40;;;29.92;;
54332;SDS011;40230;41.860;21.940;2022-09-30T12:29:17;58.78;;;29.90;;
54332;SDS011;40230;41.860;21.940;2022-09-30T12:32:17;75.03;;;30.00;;
54332;SDS011;40230;41.860;21.940;2022-09-30T12:50:27;4.97;;;2.78;;
54332;SDS011;40230;41.860;21.940;2022-09-30T12:52:54;4.55;;;2.15;;
54332;SDS011;40230;41.860;21.940;2022-09-30T12:55:42;6.05;;;4.40;;
54332;SDS011;40230;41.860;21.940;2022-09-30T12:58:15;10.55;;;7.38;;
54332;SDS011;40230;41.860;21.940;2022-09-30T13:00:56;7.70;;;5.60;;
54332;SDS011;40230;41.860;21.940;2022-09-30T13:03:24;9.38;;;5.20;;
54332;SDS011;40230;41.860;21.940;2022-09-30T13:06:01;8.77;;;3.95;;
54332;SDS011;40230;41.860;21.940;2022-09-30T13:08:32;4.70;;;2.90;;
54332;SDS011;40230;41.860;21.940;2022-09-30T13:11:03;8.02;;;5.45;;
54332;SDS011;40230;41.860;21.940;2022-09-30T13:13:30;5.18;;;4.07;;
54332;SDS011;40230;41.860;21.940;2022-09-30T13:15:59;2.97;;;1.52;;
54332;SDS011;40230;41.860;21.940;2022-09-30T13:28:52;3.95;;;1.83;;
54332;SDS011;40230;41.860;21.940;2022-09-30T13:31:20;3.90;;;1.45;;
54332;SDS011;40230;41.860;21.940;2022-09-30T13:34:04;4.78;;;2.10;;
54332;SDS011;40230;41.860;21.940;2022-09-30T13:41:41;5.70;;;2.90;;
54332;SDS011;40230;41.860;21.940;2022-09-30T13:44:13;4.60;;;1.95;;
54332;SDS011;40230;41.860;21.940;2022-09-30T13:46:42;4.88;;;2.78;;
54332;SDS011;40230;41.860;21.940;2022-09-30T13:51:43;14.45;;;3.78;;
54332;SDS011;40230;41.860;21.940;2022-09-30T13:54:12;3.58;;;1.77;;
54332;SDS011;40230;41.860;21.940;2022-09-30T13:56:40;2.63;;;1.77;;
54332;SDS011;40230;41.860;21.940;2022-09-30T13:59:13;3.53;;;2.13;;
54332;SDS011;40230;41.860;21.940;2022-09-30T14:01:47;4.65;;;2.83;;
54332;SDS011;40230;41.860;21.940;2022-09-30T14:09:33;2.83;;;2.15;;
54332;SDS011;40230;41.860;21.940;2022-09-30T14:12:11;5.45;;;3.95;;
54332;SDS011;40230;41.860;21.940;2022-09-30T14:22:11;2.90;;;1.80;;
54332;SDS011;40230;41.860;21.940;2022-09-30T14:24:39;2.53;;;1.85;;
54332;SDS011;40230;41.860;21.940;2022-09-30T14:29:38;2.45;;;1.88;;
54332;SDS011;40230;41.860;21.940;2022-09-30T14:34:53;7.10;;;2.78;;
54332;SDS011;40230;41.860;21.940;2022-09-30T14:40:07;3.83;;;2.40;;
54332;SDS011;40230;41.860;21.940;2022-09-30T14:42:35;9.45;;;2.50;;
54332;SDS011;40230;41.860;21.940;2022-09-30T14:45:05;3.50;;;1.80;;
54332;SDS011;40230;41.860;21.940;2022-09-30T14:47:33;2.58;;;1.77;;
54332;SDS011;40230;41.860;21.940;2022-09-30T14:50:01;2.83;;;1.55;;
54332;SDS011;40230;41.860;21.940;2022-09-30T14:52:35;3.35;;;1.50;;
54332;SDS011;40230;41.860;21.940;2022-09-30T14:55:02;3.72;;;1.85;;
54332;SDS011;40230;41.860;21.940;2022-09-30T14:57:28;5.53;;;2.22;;
54332;SDS011;40230;41.860;21.940;2022-09-30T15:02:43;2.92;;;2.05;;
54332;SDS011;40230;41.860;21.940;2022-09-30T15:05:11;3.70;;;2.00;;
54332;SDS011;40230;41.860;21.940;2022-09-30T15:07:39;2.95;;;1.80;;
54332;SDS011;40230;41.860;21.940;2022-09-30T15:10:05;4.95;;;2.05;;
54332;SDS011;40230;41.860;21.940;2022-09-30T15:12:31;3.28;;;2.08;;
54332;SDS011;40230;41.860;21.940;2022-09-30T15:15:01;2.30;;;1.55;;
54332;SDS011;40230;41.860;21.940;2022-09-30T15:17:47;5.70;;;4.35;;
54332;SDS011;40230;41.860;21.940;2022-09-30T15:23:02;4.15;;;2.65;;
54332;SDS011;40230;41.860;21.940;2022-09-30T15:25:29;3.83;;;2.05;;
54332;SDS011;40230;41.860;21.940;2022-09-30T15:27:55;6.88;;;3.90;;
54332;SDS011;40230;41.860;21.940;2022-09-30T15:30:23;7.30;;;4.82;;
54332;SDS011;40230;41.860;21.940;2022-09-30T15:32:55;6.47;;;3.40;;
54332;SDS011;40230;41.860;21.940;2022-09-30T15:35:22;6.30;;;3.30;;
54332;SDS011;40230;41.860;21.940;2022-09-30T15:37:49;4.93;;;3.33;;
54332;SDS011;40230;41.860;21.940;2022-09-30T15:40:15;5.45;;;2.83;;
54332;SDS011;40230;41.860;21.940;2022-09-30T15:43:02;4.05;;;2.33;;
54332;SDS011;40230;41.860;21.940;2022-09-30T15:45:31;2.55;;;1.90;;
54332;SDS011;40230;41.860;21.940;2022-09-30T15:47:59;2.58;;;2.38;;
54332;SDS011;40230;41.860;21.940;2022-09-30T15:53:17;3.78;;;1.95;;
54332;SDS011;40230;41.860;21.940;2022-09-30T15:55:45;8.20;;;2.80;;
54332;SDS011;40230;41.860;21.940;2022-09-30T16:03:48;3.45;;;2.50;;
54332;SDS011;40230;41.860;21.940;2022-09-30T16:06:14;3.70;;;2.53;;
54332;SDS011;40230;41.860;21.940;2022-09-30T16:08:49;3.80;;;2.85;;
54332;SDS011;40230;41.860;21.940;2022-09-30T16:11:25;6.50;;;3.00;;
54332;SDS011;40230;41.860;21.940;2022-09-30T16:13:51;3.92;;;3.08;;
54332;SDS011;40230;41.860;21.940;2022-09-30T16:16:23;4.53;;;3.35;;
54332;SDS011;40230;41.860;21.940;2022-09-30T16:18:50;6.95;;;4.40;;
54332;SDS011;40230;41.860;21.940;2022-09-30T16:21:36;5.90;;;4.28;;
54332;SDS011;40230;41.860;21.940;2022-09-30T16:26:46;2.92;;;2.55;;
54332;SDS011;40230;41.860;21.940;2022-09-30T16:29:13;4.65;;;2.47;;
54332;SDS011;40230;41.860;21.940;2022-09-30T16:31:39;3.72;;;2.65;;
54332;SDS011;40230;41.860;21.940;2022-09-30T16:34:07;3.20;;;2.70;;
54332;SDS011;40230;41.860;21.940;2022-09-30T16:36:36;6.30;;;4.22;;
54332;SDS011;40230;41.860;21.940;2022-09-30T16:39:02;5.05;;;4.13;;
54332;SDS011;40230;41.860;21.940;2022-09-30T16:41:28;8.13;;;5.38;;
54332;SDS011;40230;41.860;21.940;2022-09-30T16:43:54;6.03;;;4.15;;
54332;SDS011;40230;41.860;21.940;2022-09-30T16:46:21;8.35;;;4.78;;
54332;SDS011;40230;41.860;21.940;2022-09-30T16:48:47;8.18;;;4.85;;
54332;SDS011;40230;41.860;21.940;2022-09-30T16:51:13;7.65;;;5.03;;
54332;SDS011;40230;41.860;21.940;2022-09-30T16:53:41;7.30;;;4.18;;
54332;SDS011;40230;41.860;21.940;2022-09-30T16:56:13;6.47;;;4.38;;
54332;SDS011;40230;41.860;21.940;2022-09-30T16:58:40;5.45;;;3.25;;
54332;SDS011;40230;41.860;21.940;2022-09-30T17:01:28;4.93;;;3.20;;
54332;SDS011;40230;41.860;21.940;2022-09-30T17:03:54;4.55;;;3.88;;
54332;SDS011;40230;41.860;21.940;2022-09-30T17:06:23;7.05;;;3.95;;
54332;SDS011;40230;41.860;21.940;2022-09-30T17:08:50;4.22;;;3.47;;
54332;SDS011;40230;41.860;21.940;2022-09-30T17:11:17;6.82;;;3.22;;
54332;SDS011;40230;41.860;21.940;2022-09-30T17:13:44;5.50;;;4.55;;
54332;SDS011;40230;41.860;21.940;2022-09-30T17:16:10;8.65;;;6.32;;
54332;SDS011;40230;41.860;21.940;2022-09-30T17:18:36;13.40;;;7.35;;
54332;SDS011;40230;41.860;21.940;2022-09-30T17:21:03;41.90;;;25.85;;
54332;SDS011;40230;41.860;21.940;2022-09-30T17:23:29;15.52;;;10.55;;
54332;SDS011;40230;41.860;21.940;2022-09-30T17:25:55;8.68;;;7.60;;
54332;SDS011;40230;41.860;21.940;2022-09-30T17:28:22;13.32;;;10.48;;
54332;SDS011;40230;41.860;21.940;2022-09-30T17:30:48;13.23;;;11.57;;
54332;SDS011;40230;41.860;21.940;2022-09-30T17:33:14;18.80;;;14.38;;
54332;SDS011;40230;41.860;21.940;2022-09-30T17:35:41;18.95;;;13.52;;
54332;SDS011;40230;41.860;21.940;2022-09-30T17:38:08;14.32;;;10.02;;
54332;SDS011;40230;41.860;21.940;2022-09-30T17:40:35;13.98;;;11.43;;
54332;SDS011;40230;41.860;21.940;2022-09-30T17:43:20;10.52;;;8.57;;
54332;SDS011;40230;41.860;21.940;2022-09-30T17:45:46;12.02;;;7.95;;
54332;SDS011;40230;41.860;21.940;2022-09-30T17:48:13;11.40;;;8.80;;
54332;SDS011;40230;41.860;21.940;2022-09-30T17:50:42;9.63;;;8.57;;
54332;SDS011;40230;41.860;21.940;2022-09-30T17:53:08;10.68;;;8.93;;
54332;SDS011;40230;41.860;21.940;2022-09-30T17:55:37;10.60;;;7.57;;
54332;SDS011;40230;41.860;21.940;2022-09-30T17:58:05;9.23;;;7.10;;
54332;SDS011;40230;41.860;21.940;2022-09-30T18:00:31;10.43;;;8.45;;
54332;SDS011;40230;41.860;21.940;2022-09-30T18:02:57;8.35;;;7.38;;
54332;SDS011;40230;41.860;21.940;2022-09-30T18:05:24;14.93;;;11.82;;
54332;SDS011;40230;41.860;21.940;2022-09-30T18:07:51;9.35;;;7.28;;
54332;SDS011;40230;41.860;21.940;2022-09-30T18:10:18;8.60;;;7.15;;